sensor_id;sensor_type;location;lat;lon;timestamp;P1;durP1;ratioP1;P2;durP2;ratioP2
8958;SDS011;4514;49.476;8.484;2023-03-03T00:02:16;33.30;;;26.40;;
8958;SDS011;4514;49.476;8.484;2023-03-03T00:04:44;39.23;;;27.53;;
8958;SDS011;4514;49.476;8.484;2023-03-03T00:07:11;34.47;;;25.67;;
8958;SDS011;4514;49.476;8.484;2023-03-03T00:09:48;35.10;;;26.83;;
8958;SDS011;4514;49.476;8.484;2023-03-03T00:14:45;34.67;;;27.03;;
8958;SDS011;4514;49.476;8.484;2023-03-03T00:17:21;33.43;;;27.13;;
8958;SDS011;4514;49.476;8.484;2023-03-03T00:19:48;36.13;;;26.33;;
8958;SDS011;4514;49.476;8.484;2023-03-03T00:24:57;33.47;;;27.63;;
8958;SDS011;4514;49.476;8.484;2023-03-03T00:27:33;34.87;;;27.57;;
8958;SDS011;4514;49.476;8.484;2023-03-03T00:30:02;37.47;;;28.43;;
8958;SDS011;4514;49.476;8.484;2023-03-03T00:32:33;31.33;;;27.10;;
8958;SDS011;4514;49.476;8.484;2023-03-03T00:35:20;35.50;;;28.63;;
8958;SDS011;4514;49.476;8.484;2023-03-03T00:37:49;33.37;;;27.57;;
8958;SDS011;4514;49.476;8.484;2023-03-03T00:40:20;34.27;;;28.60;;
8958;SDS011;4514;49.476;8.484;2023-03-03T00:42:59;35.80;;;30.20;;
8958;SDS011;4514;49.476;8.484;2023-03-03T00:47:54;34.00;;;27.23;;
8958;SDS011;4514;49.476;8.484;2023-03-03T00:50:24;35.13;;;27.43;;
8958;SDS011;4514;49.476;8.484;2023-03-03T00:53:01;33.60;;;26.80;;
8958;SDS011;4514;49.476;8.484;2023-03-03T00:55:31;34.10;;;26.77;;
8958;SDS011;4514;49.476;8.484;2023-03-03T00:58:03;34.27;;;26.53;;
8958;SDS011;4514;49.476;8.484;2023-03-03T01:00:28;31.63;;;26.07;;
8958;SDS011;4514;49.476;8.484;2023-03-03T01:02:56;32.23;;;26.40;;
8958;SDS011;4514;49.476;8.484;2023-03-03T01:05:23;33.87;;;26.20;;
8958;SDS011;4514;49.476;8.484;2023-03-03T01:07:48;31.37;;;26.60;;
8958;SDS011;4514;49.476;8.484;2023-03-03T01:10:14;31.93;;;27.50;;
8958;SDS011;4514;49.476;8.484;2023-03-03T01:12:41;33.17;;;26.23;;
8958;SDS011;4514;49.476;8.484;2023-03-03T01:15:09;32.80;;;26.83;;
8958;SDS011;4514;49.476;8.484;2023-03-03T01:17:35;35.87;;;29.03;;
8958;SDS011;4514;49.476;8.484;2023-03-03T01:20:01;33.13;;;27.20;;
8958;SDS011;4514;49.476;8.484;2023-03-03T01:22:29;33.47;;;26.70;;
8958;SDS011;4514;49.476;8.484;2023-03-03T01:24:57;33.73;;;27.53;;
8958;SDS011;4514;49.476;8.484;2023-03-03T01:27:22;32.43;;;27.40;;
8958;SDS011;4514;49.476;8.484;2023-03-03T01:29:47;35.20;;;28.47;;
8958;SDS011;4514;49.476;8.484;2023-03-03T01:32:15;32.93;;;28.63;;
8958;SDS011;4514;49.476;8.484;2023-03-03T01:34:40;34.20;;;28.07;;
8958;SDS011;4514;49.476;8.484;2023-03-03T01:37:06;35.60;;;28.30;;
8958;SDS011;4514;49.476;8.484;2023-03-03T01:39:31;37.17;;;27.87;;
8958;SDS011;4514;49.476;8.484;2023-03-03T01:41:59;36.90;;;29.43;;
8958;SDS011;4514;49.476;8.484;2023-03-03T01:44:27;34.53;;;28.40;;
8958;SDS011;4514;49.476;8.484;2023-03-03T01:49:32;34.03;;;27.80;;
8958;SDS011;4514;49.476;8.484;2023-03-03T01:52:01;33.17;;;27.23;;
8958;SDS011;4514;49.476;8.484;2023-03-03T01:54:30;33.47;;;27.43;;
8958;SDS011;4514;49.476;8.484;2023-03-03T01:57:03;35.67;;;28.63;;
8958;SDS011;4514;49.476;8.484;2023-03-03T01:59:32;35.63;;;28.47;;
8958;SDS011;4514;49.476;8.484;2023-03-03T02:02:02;35.37;;;28.67;;
8958;SDS011;4514;49.476;8.484;2023-03-03T02:04:28;35.17;;;28.50;;
8958;SDS011;4514;49.476;8.484;2023-03-03T02:06:56;37.00;;;27.47;;
8958;SDS011;4514;49.476;8.484;2023-03-03T02:12:08;35.93;;;28.27;;
8958;SDS011;4514;49.476;8.484;2023-03-03T02:14:40;35.03;;;27.80;;
8958;SDS011;4514;49.476;8.484;2023-03-03T02:17:06;35.43;;;28.07;;
8958;SDS011;4514;49.476;8.484;2023-03-03T02:22:35;33.90;;;28.33;;
8958;SDS011;4514;49.476;8.484;2023-03-03T02:25:08;35.37;;;28.17;;
8958;SDS011;4514;49.476;8.484;2023-03-03T02:27:38;35.77;;;29.73;;
8958;SDS011;4514;49.476;8.484;2023-03-03T02:30:12;38.03;;;28.60;;
8958;SDS011;4514;49.476;8.484;2023-03-03T02:32:39;35.37;;;29.60;;
8958;SDS011;4514;49.476;8.484;2023-03-03T02:35:21;35.87;;;28.13;;
8958;SDS011;4514;49.476;8.484;2023-03-03T02:37:50;42.43;;;28.07;;
8958;SDS011;4514;49.476;8.484;2023-03-03T02:40:15;37.37;;;29.40;;
8958;SDS011;4514;49.476;8.484;2023-03-03T02:42:42;35.17;;;28.90;;
8958;SDS011;4514;49.476;8.484;2023-03-03T02:45:09;35.03;;;28.47;;
8958;SDS011;4514;49.476;8.484;2023-03-03T02:47:37;32.60;;;28.00;;
8958;SDS011;4514;49.476;8.484;2023-03-03T02:50:02;34.03;;;27.93;;
8958;SDS011;4514;49.476;8.484;2023-03-03T02:52:38;36.17;;;28.37;;
8958;SDS011;4514;49.476;8.484;2023-03-03T02:55:06;35.63;;;30.40;;
8958;SDS011;4514;49.476;8.484;2023-03-03T02:57:32;37.35;;;30.42;;
8958;SDS011;4514;49.476;8.484;2023-03-03T02:59:57;37.27;;;28.17;;
8958;SDS011;4514;49.476;8.484;2023-03-03T03:02:27;37.67;;;28.07;;
8958;SDS011;4514;49.476;8.484;2023-03-03T03:04:52;36.67;;;27.60;;
8958;SDS011;4514;49.476;8.484;2023-03-03T03:07:18;33.77;;;25.37;;
8958;SDS011;4514;49.476;8.484;2023-03-03T03:09:50;35.30;;;27.57;;
8958;SDS011;4514;49.476;8.484;2023-03-03T03:12:19;31.57;;;26.57;;
8958;SDS011;4514;49.476;8.484;2023-03-03T03:14:46;32.60;;;24.57;;
8958;SDS011;4514;49.476;8.484;2023-03-03T03:17:14;31.13;;;24.83;;
8958;SDS011;4514;49.476;8.484;2023-03-03T03:19:44;28.90;;;23.43;;
8958;SDS011;4514;49.476;8.484;2023-03-03T03:22:10;28.50;;;22.03;;
8958;SDS011;4514;49.476;8.484;2023-03-03T03:24:35;22.33;;;19.40;;
8958;SDS011;4514;49.476;8.484;2023-03-03T03:27:00;21.47;;;16.83;;
8958;SDS011;4514;49.476;8.484;2023-03-03T03:29:28;19.47;;;16.77;;
8958;SDS011;4514;49.476;8.484;2023-03-03T03:31:54;19.43;;;15.40;;
8958;SDS011;4514;49.476;8.484;2023-03-03T03:34:19;19.13;;;15.63;;
8958;SDS011;4514;49.476;8.484;2023-03-03T03:36:47;20.27;;;15.50;;
8958;SDS011;4514;49.476;8.484;2023-03-03T03:39:12;19.63;;;15.80;;
8958;SDS011;4514;49.476;8.484;2023-03-03T03:41:41;20.07;;;16.03;;
8958;SDS011;4514;49.476;8.484;2023-03-03T03:44:06;19.53;;;16.00;;
8958;SDS011;4514;49.476;8.484;2023-03-03T03:46:34;18.67;;;15.50;;
8958;SDS011;4514;49.476;8.484;2023-03-03T03:49:02;17.00;;;14.43;;
8958;SDS011;4514;49.476;8.484;2023-03-03T03:51:29;15.93;;;13.77;;
8958;SDS011;4514;49.476;8.484;2023-03-03T03:53:55;17.03;;;13.57;;
8958;SDS011;4514;49.476;8.484;2023-03-03T03:56:20;15.33;;;12.67;;
8958;SDS011;4514;49.476;8.484;2023-03-03T03:58:46;15.47;;;12.43;;
8958;SDS011;4514;49.476;8.484;2023-03-03T04:01:11;14.80;;;12.10;;
8958;SDS011;4514;49.476;8.484;2023-03-03T04:03:39;14.10;;;11.80;;
8958;SDS011;4514;49.476;8.484;2023-03-03T04:06:07;13.50;;;12.00;;
8958;SDS011;4514;49.476;8.484;2023-03-03T04:08:32;13.70;;;11.93;;
8958;SDS011;4514;49.476;8.484;2023-03-03T04:11:00;14.57;;;11.37;;
8958;SDS011;4514;49.476;8.484;2023-03-03T04:13:28;14.23;;;11.40;;
8958;SDS011;4514;49.476;8.484;2023-03-03T04:15:56;13.83;;;10.97;;
8958;SDS011;4514;49.476;8.484;2023-03-03T04:18:21;12.70;;;10.70;;
8958;SDS011;4514;49.476;8.484;2023-03-03T04:20:50;15.70;;;12.27;;
8958;SDS011;4514;49.476;8.484;2023-03-03T04:23:18;12.53;;;10.87;;
8958;SDS011;4514;49.476;8.484;2023-03-03T04:25:45;13.70;;;11.37;;
8958;SDS011;4514;49.476;8.484;2023-03-03T04:28:14;14.70;;;11.27;;
8958;SDS011;4514;49.476;8.484;2023-03-03T04:30:42;13.23;;;11.77;;
8958;SDS011;4514;49.476;8.484;2023-03-03T04:33:08;12.30;;;10.93;;
8958;SDS011;4514;49.476;8.484;2023-03-03T04:35:34;13.80;;;11.43;;
8958;SDS011;4514;49.476;8.484;2023-03-03T04:37:59;15.10;;;11.27;;
8958;SDS011;4514;49.476;8.484;2023-03-03T04:40:27;13.10;;;10.93;;
8958;SDS011;4514;49.476;8.484;2023-03-03T04:42:52;13.93;;;11.50;;
8958;SDS011;4514;49.476;8.484;2023-03-03T04:45:20;13.43;;;12.02;;
8958;SDS011;4514;49.476;8.484;2023-03-03T04:47:47;13.33;;;11.17;;
8958;SDS011;4514;49.476;8.484;2023-03-03T04:50:13;14.87;;;11.70;;
8958;SDS011;4514;49.476;8.484;2023-03-03T04:52:38;14.23;;;11.37;;
8958;SDS011;4514;49.476;8.484;2023-03-03T04:55:03;14.43;;;12.30;;
8958;SDS011;4514;49.476;8.484;2023-03-03T04:57:30;14.57;;;11.93;;
8958;SDS011;4514;49.476;8.484;2023-03-03T04:59:58;13.43;;;11.60;;
8958;SDS011;4514;49.476;8.484;2023-03-03T05:02:23;14.63;;;12.80;;
8958;SDS011;4514;49.476;8.484;2023-03-03T05:04:48;15.87;;;11.90;;
8958;SDS011;4514;49.476;8.484;2023-03-03T05:07:16;15.77;;;11.97;;
8958;SDS011;4514;49.476;8.484;2023-03-03T05:09:43;14.07;;;12.20;;
8958;SDS011;4514;49.476;8.484;2023-03-03T05:12:08;14.60;;;12.40;;
8958;SDS011;4514;49.476;8.484;2023-03-03T05:14:33;14.47;;;12.93;;
8958;SDS011;4514;49.476;8.484;2023-03-03T05:17:02;14.87;;;12.80;;
8958;SDS011;4514;49.476;8.484;2023-03-03T05:19:28;16.40;;;13.70;;
8958;SDS011;4514;49.476;8.484;2023-03-03T05:21:56;16.57;;;13.87;;
8958;SDS011;4514;49.476;8.484;2023-03-03T05:24:22;17.13;;;14.20;;
8958;SDS011;4514;49.476;8.484;2023-03-03T05:26:48;16.20;;;14.50;;
8958;SDS011;4514;49.476;8.484;2023-03-03T05:29:15;15.83;;;14.10;;
8958;SDS011;4514;49.476;8.484;2023-03-03T05:31:41;16.60;;;14.57;;
8958;SDS011;4514;49.476;8.484;2023-03-03T05:34:09;17.87;;;14.90;;
8958;SDS011;4514;49.476;8.484;2023-03-03T05:36:34;16.97;;;14.87;;
8958;SDS011;4514;49.476;8.484;2023-03-03T05:39:02;18.00;;;15.50;;
8958;SDS011;4514;49.476;8.484;2023-03-03T05:41:28;18.07;;;16.17;;
8958;SDS011;4514;49.476;8.484;2023-03-03T05:43:54;18.97;;;16.87;;
8958;SDS011;4514;49.476;8.484;2023-03-03T05:46:22;18.50;;;16.60;;
8958;SDS011;4514;49.476;8.484;2023-03-03T05:48:47;18.70;;;16.70;;
8958;SDS011;4514;49.476;8.484;2023-03-03T05:51:13;17.87;;;15.97;;
8958;SDS011;4514;49.476;8.484;2023-03-03T05:53:41;20.17;;;16.90;;
8958;SDS011;4514;49.476;8.484;2023-03-03T05:56:06;19.77;;;16.93;;
8958;SDS011;4514;49.476;8.484;2023-03-03T05:58:34;19.17;;;17.17;;
8958;SDS011;4514;49.476;8.484;2023-03-03T06:00:59;20.57;;;18.37;;
8958;SDS011;4514;49.476;8.484;2023-03-03T06:03:27;21.07;;;17.83;;
8958;SDS011;4514;49.476;8.484;2023-03-03T06:05:52;21.63;;;18.50;;
8958;SDS011;4514;49.476;8.484;2023-03-03T06:08:18;20.37;;;18.20;;
8958;SDS011;4514;49.476;8.484;2023-03-03T06:10:46;20.57;;;18.37;;
8958;SDS011;4514;49.476;8.484;2023-03-03T06:13:11;20.87;;;18.57;;
8958;SDS011;4514;49.476;8.484;2023-03-03T06:15:37;21.77;;;18.27;;
8958;SDS011;4514;49.476;8.484;2023-03-03T06:18:02;22.80;;;18.63;;
8958;SDS011;4514;49.476;8.484;2023-03-03T06:20:28;23.20;;;18.77;;
8958;SDS011;4514;49.476;8.484;2023-03-03T06:22:55;19.30;;;16.50;;
8958;SDS011;4514;49.476;8.484;2023-03-03T06:25:22;20.10;;;16.85;;
8958;SDS011;4514;49.476;8.484;2023-03-03T06:27:52;20.80;;;16.50;;
8958;SDS011;4514;49.476;8.484;2023-03-03T06:30:22;19.90;;;16.87;;
8958;SDS011;4514;49.476;8.484;2023-03-03T06:32:48;21.17;;;17.27;;
8958;SDS011;4514;49.476;8.484;2023-03-03T06:35:13;22.27;;;18.30;;
8958;SDS011;4514;49.476;8.484;2023-03-03T06:37:41;21.63;;;18.27;;
8958;SDS011;4514;49.476;8.484;2023-03-03T06:40:07;21.03;;;18.70;;
8958;SDS011;4514;49.476;8.484;2023-03-03T06:42:33;21.53;;;18.33;;
8958;SDS011;4514;49.476;8.484;2023-03-03T06:45:01;24.27;;;19.23;;
8958;SDS011;4514;49.476;8.484;2023-03-03T06:47:26;22.13;;;19.17;;
8958;SDS011;4514;49.476;8.484;2023-03-03T06:49:54;21.13;;;18.40;;
8958;SDS011;4514;49.476;8.484;2023-03-03T06:52:21;23.97;;;19.97;;
8958;SDS011;4514;49.476;8.484;2023-03-03T06:54:52;25.05;;;20.30;;
8958;SDS011;4514;49.476;8.484;2023-03-03T06:57:25;24.03;;;19.83;;
8958;SDS011;4514;49.476;8.484;2023-03-03T06:59:52;24.20;;;18.87;;
8958;SDS011;4514;49.476;8.484;2023-03-03T07:02:22;24.67;;;18.97;;
8958;SDS011;4514;49.476;8.484;2023-03-03T07:04:50;24.27;;;19.57;;
8958;SDS011;4514;49.476;8.484;2023-03-03T07:07:19;24.90;;;20.43;;
8958;SDS011;4514;49.476;8.484;2023-03-03T07:09:47;23.87;;;19.77;;
8958;SDS011;4514;49.476;8.484;2023-03-03T07:12:17;25.93;;;20.37;;
8958;SDS011;4514;49.476;8.484;2023-03-03T07:14:47;23.50;;;20.67;;
8958;SDS011;4514;49.476;8.484;2023-03-03T07:17:19;27.07;;;21.10;;
8958;SDS011;4514;49.476;8.484;2023-03-03T07:19:46;33.13;;;22.13;;
8958;SDS011;4514;49.476;8.484;2023-03-03T07:24:44;24.97;;;21.60;;
8958;SDS011;4514;49.476;8.484;2023-03-03T07:27:24;26.20;;;21.77;;
8958;SDS011;4514;49.476;8.484;2023-03-03T07:29:52;28.37;;;22.10;;
8958;SDS011;4514;49.476;8.484;2023-03-03T07:32:21;25.70;;;22.63;;
8958;SDS011;4514;49.476;8.484;2023-03-03T07:34:47;28.53;;;22.67;;
8958;SDS011;4514;49.476;8.484;2023-03-03T07:37:26;26.63;;;22.17;;
8958;SDS011;4514;49.476;8.484;2023-03-03T07:39:57;29.73;;;23.23;;
8958;SDS011;4514;49.476;8.484;2023-03-03T07:44:53;25.80;;;22.33;;
8958;SDS011;4514;49.476;8.484;2023-03-03T07:49:48;28.87;;;23.10;;
8958;SDS011;4514;49.476;8.484;2023-03-03T07:54:54;26.50;;;21.13;;
8958;SDS011;4514;49.476;8.484;2023-03-03T07:59:59;26.47;;;22.87;;
8958;SDS011;4514;49.476;8.484;2023-03-03T08:02:40;29.43;;;23.67;;
8958;SDS011;4514;49.476;8.484;2023-03-03T08:10:59;25.73;;;21.70;;
8958;SDS011;4514;49.476;8.484;2023-03-03T08:16:01;27.60;;;21.20;;
8958;SDS011;4514;49.476;8.484;2023-03-03T08:18:35;24.57;;;21.20;;
8958;SDS011;4514;49.476;8.484;2023-03-03T08:21:06;26.53;;;21.07;;
8958;SDS011;4514;49.476;8.484;2023-03-03T08:23:36;27.70;;;22.03;;
8958;SDS011;4514;49.476;8.484;2023-03-03T08:26:04;30.20;;;22.87;;
8958;SDS011;4514;49.476;8.484;2023-03-03T08:28:36;26.77;;;22.93;;
8958;SDS011;4514;49.476;8.484;2023-03-03T08:31:08;32.07;;;24.27;;
8958;SDS011;4514;49.476;8.484;2023-03-03T08:33:41;29.67;;;23.43;;
8958;SDS011;4514;49.476;8.484;2023-03-03T08:36:06;29.47;;;22.13;;
8958;SDS011;4514;49.476;8.484;2023-03-03T08:38:34;31.50;;;22.30;;
8958;SDS011;4514;49.476;8.484;2023-03-03T08:41:00;28.67;;;23.40;;
8958;SDS011;4514;49.476;8.484;2023-03-03T08:43:28;30.33;;;23.77;;
8958;SDS011;4514;49.476;8.484;2023-03-03T08:45:56;29.80;;;22.83;;
8958;SDS011;4514;49.476;8.484;2023-03-03T08:48:26;27.00;;;20.80;;
8958;SDS011;4514;49.476;8.484;2023-03-03T08:50:54;29.20;;;22.00;;
8958;SDS011;4514;49.476;8.484;2023-03-03T08:53:22;28.67;;;21.93;;
8958;SDS011;4514;49.476;8.484;2023-03-03T08:55:48;29.20;;;23.97;;
8958;SDS011;4514;49.476;8.484;2023-03-03T08:58:17;28.33;;;22.63;;
8958;SDS011;4514;49.476;8.484;2023-03-03T09:00:44;28.13;;;23.07;;
8958;SDS011;4514;49.476;8.484;2023-03-03T09:03:12;31.73;;;23.20;;
8958;SDS011;4514;49.476;8.484;2023-03-03T09:05:39;34.00;;;24.35;;
8958;SDS011;4514;49.476;8.484;2023-03-03T09:08:09;26.90;;;23.38;;
8958;SDS011;4514;49.476;8.484;2023-03-03T09:10:34;28.85;;;23.38;;
8958;SDS011;4514;49.476;8.484;2023-03-03T09:13:11;29.25;;;23.20;;
8958;SDS011;4514;49.476;8.484;2023-03-03T09:15:39;31.38;;;23.80;;
8958;SDS011;4514;49.476;8.484;2023-03-03T09:18:09;26.10;;;22.55;;
8958;SDS011;4514;49.476;8.484;2023-03-03T09:20:46;30.48;;;22.48;;
8958;SDS011;4514;49.476;8.484;2023-03-03T09:28:51;24.30;;;21.67;;
8958;SDS011;4514;49.476;8.484;2023-03-03T09:31:23;24.73;;;22.05;;
8958;SDS011;4514;49.476;8.484;2023-03-03T09:33:51;24.98;;;22.17;;
8958;SDS011;4514;49.476;8.484;2023-03-03T09:38:47;25.48;;;22.73;;
8958;SDS011;4514;49.476;8.484;2023-03-03T09:44:18;26.58;;;23.73;;
8958;SDS011;4514;49.476;8.484;2023-03-03T09:46:59;26.35;;;23.52;;
8958;SDS011;4514;49.476;8.484;2023-03-03T09:52:42;27.02;;;24.13;;
8958;SDS011;4514;49.476;8.484;2023-03-03T09:55:35;27.25;;;23.58;;
8958;SDS011;4514;49.476;8.484;2023-03-03T10:11:58;31.27;;;26.17;;
8958;SDS011;4514;49.476;8.484;2023-03-03T10:17:05;26.95;;;24.05;;
8958;SDS011;4514;49.476;8.484;2023-03-03T10:22:32;27.05;;;23.52;;
8958;SDS011;4514;49.476;8.484;2023-03-03T10:28:40;30.05;;;26.08;;
8958;SDS011;4514;49.476;8.484;2023-03-03T10:30:53;28.33;;;24.70;;
8958;SDS011;4514;49.476;8.484;2023-03-03T10:33:28;29.80;;;26.70;;
8958;SDS011;4514;49.476;8.484;2023-03-03T10:38:44;29.40;;;26.23;;
8958;SDS011;4514;49.476;8.484;2023-03-03T10:46:50;29.92;;;25.58;;
8958;SDS011;4514;49.476;8.484;2023-03-03T10:54:50;30.63;;;27.42;;
8958;SDS011;4514;49.476;8.484;2023-03-03T11:05:51;28.92;;;23.90;;
8958;SDS011;4514;49.476;8.484;2023-03-03T11:10:50;28.00;;;24.55;;
8958;SDS011;4514;49.476;8.484;2023-03-03T11:18:45;28.67;;;25.55;;
8958;SDS011;4514;49.476;8.484;2023-03-03T11:24:33;29.08;;;25.60;;
8958;SDS011;4514;49.476;8.484;2023-03-03T11:32:48;29.00;;;25.95;;
8958;SDS011;4514;49.476;8.484;2023-03-03T11:40:58;28.10;;;25.02;;
8958;SDS011;4514;49.476;8.484;2023-03-03T11:43:30;30.67;;;27.57;;
8958;SDS011;4514;49.476;8.484;2023-03-03T11:46:12;29.48;;;26.27;;
8958;SDS011;4514;49.476;8.484;2023-03-03T11:51:19;31.15;;;25.63;;
8958;SDS011;4514;49.476;8.484;2023-03-03T11:56:41;30.00;;;26.80;;
8958;SDS011;4514;49.476;8.484;2023-03-03T12:05:06;27.95;;;24.15;;
8958;SDS011;4514;49.476;8.484;2023-03-03T12:13:34;27.00;;;23.85;;
8958;SDS011;4514;49.476;8.484;2023-03-03T12:27:06;25.63;;;22.83;;
8958;SDS011;4514;49.476;8.484;2023-03-03T12:29:40;27.77;;;22.42;;
8958;SDS011;4514;49.476;8.484;2023-03-03T12:35:46;28.77;;;24.90;;
8958;SDS011;4514;49.476;8.484;2023-03-03T12:38:07;26.52;;;23.35;;
8958;SDS011;4514;49.476;8.484;2023-03-03T12:40:56;26.25;;;22.73;;
8958;SDS011;4514;49.476;8.484;2023-03-03T12:46:33;27.52;;;22.88;;
8958;SDS011;4514;49.476;8.484;2023-03-03T12:49:05;27.52;;;22.77;;
8958;SDS011;4514;49.476;8.484;2023-03-03T12:56:44;24.92;;;22.10;;
8958;SDS011;4514;49.476;8.484;2023-03-03T13:04:37;28.00;;;22.83;;
8958;SDS011;4514;49.476;8.484;2023-03-03T13:07:13;24.98;;;22.02;;
8958;SDS011;4514;49.476;8.484;2023-03-03T13:09:50;25.48;;;22.65;;
8958;SDS011;4514;49.476;8.484;2023-03-03T13:12:44;28.85;;;22.20;;
8958;SDS011;4514;49.476;8.484;2023-03-03T13:15:20;28.33;;;23.45;;
8958;SDS011;4514;49.476;8.484;2023-03-03T13:18:34;28.17;;;23.60;;
8958;SDS011;4514;49.476;8.484;2023-03-03T13:20:52;26.77;;;22.70;;
8958;SDS011;4514;49.476;8.484;2023-03-03T13:23:35;31.13;;;24.15;;
8958;SDS011;4514;49.476;8.484;2023-03-03T13:26:19;29.42;;;24.63;;
8958;SDS011;4514;49.476;8.484;2023-03-03T13:29:02;28.48;;;23.55;;
8958;SDS011;4514;49.476;8.484;2023-03-03T13:31:34;27.58;;;23.75;;
8958;SDS011;4514;49.476;8.484;2023-03-03T13:34:00;29.38;;;23.45;;
8958;SDS011;4514;49.476;8.484;2023-03-03T13:36:37;30.20;;;24.25;;
8958;SDS011;4514;49.476;8.484;2023-03-03T13:39:20;28.20;;;24.00;;
8958;SDS011;4514;49.476;8.484;2023-03-03T13:44:30;28.00;;;23.50;;
8958;SDS011;4514;49.476;8.484;2023-03-03T13:47:05;27.75;;;23.60;;
8958;SDS011;4514;49.476;8.484;2023-03-03T13:49:40;25.65;;;21.58;;
8958;SDS011;4514;49.476;8.484;2023-03-03T13:52:22;27.83;;;22.52;;
8958;SDS011;4514;49.476;8.484;2023-03-03T13:57:53;26.95;;;22.42;;
8958;SDS011;4514;49.476;8.484;2023-03-03T14:03:10;26.75;;;22.05;;
8958;SDS011;4514;49.476;8.484;2023-03-03T14:05:55;26.40;;;21.83;;
8958;SDS011;4514;49.476;8.484;2023-03-03T14:13:32;30.13;;;23.20;;
8958;SDS011;4514;49.476;8.484;2023-03-03T14:16:06;26.67;;;22.08;;
8958;SDS011;4514;49.476;8.484;2023-03-03T14:19:03;29.40;;;22.70;;
8958;SDS011;4514;49.476;8.484;2023-03-03T14:21:44;26.83;;;21.52;;
8958;SDS011;4514;49.476;8.484;2023-03-03T14:24:17;30.00;;;23.35;;
8958;SDS011;4514;49.476;8.484;2023-03-03T14:31:55;27.00;;;21.58;;
8958;SDS011;4514;49.476;8.484;2023-03-03T14:34:29;30.27;;;22.05;;
8958;SDS011;4514;49.476;8.484;2023-03-03T14:37:21;26.15;;;20.85;;
8958;SDS011;4514;49.476;8.484;2023-03-03T14:39:58;27.55;;;20.83;;
8958;SDS011;4514;49.476;8.484;2023-03-03T14:42:34;27.27;;;21.13;;
8958;SDS011;4514;49.476;8.484;2023-03-03T14:45:14;29.13;;;21.67;;
8958;SDS011;4514;49.476;8.484;2023-03-03T14:50:41;24.70;;;19.90;;
8958;SDS011;4514;49.476;8.484;2023-03-03T14:55:45;25.50;;;20.52;;
8958;SDS011;4514;49.476;8.484;2023-03-03T15:04:04;22.75;;;18.50;;
8958;SDS011;4514;49.476;8.484;2023-03-03T15:11:58;24.67;;;18.92;;
8958;SDS011;4514;49.476;8.484;2023-03-03T15:14:36;23.45;;;18.98;;
8958;SDS011;4514;49.476;8.484;2023-03-03T15:22:44;23.73;;;21.03;;
8958;SDS011;4514;49.476;8.484;2023-03-03T15:27:42;25.00;;;17.80;;
8958;SDS011;4514;49.476;8.484;2023-03-03T15:30:32;20.08;;;16.48;;
8958;SDS011;4514;49.476;8.484;2023-03-03T15:33:04;21.63;;;17.02;;
8958;SDS011;4514;49.476;8.484;2023-03-03T15:38:36;19.63;;;15.32;;
8958;SDS011;4514;49.476;8.484;2023-03-03T15:43:54;20.90;;;16.52;;
8958;SDS011;4514;49.476;8.484;2023-03-03T15:46:27;24.02;;;15.98;;
8958;SDS011;4514;49.476;8.484;2023-03-03T15:56:54;18.83;;;15.43;;
8958;SDS011;4514;49.476;8.484;2023-03-03T16:02:15;17.85;;;14.25;;
8958;SDS011;4514;49.476;8.484;2023-03-03T16:12:51;16.77;;;12.98;;
8958;SDS011;4514;49.476;8.484;2023-03-03T16:20:38;19.77;;;13.38;;
8958;SDS011;4514;49.476;8.484;2023-03-03T16:32:00;17.85;;;12.35;;
8958;SDS011;4514;49.476;8.484;2023-03-03T16:40:57;14.07;;;11.10;;
8958;SDS011;4514;49.476;8.484;2023-03-03T16:43:26;14.85;;;11.38;;
8958;SDS011;4514;49.476;8.484;2023-03-03T16:45:56;14.48;;;10.90;;
8958;SDS011;4514;49.476;8.484;2023-03-03T16:56:09;15.10;;;10.93;;
8958;SDS011;4514;49.476;8.484;2023-03-03T17:01:27;14.50;;;11.07;;
8958;SDS011;4514;49.476;8.484;2023-03-03T17:04:21;15.17;;;11.10;;
8958;SDS011;4514;49.476;8.484;2023-03-03T17:07:02;16.48;;;11.80;;
8958;SDS011;4514;49.476;8.484;2023-03-03T17:12:30;17.48;;;11.63;;
8958;SDS011;4514;49.476;8.484;2023-03-03T17:15:06;18.77;;;12.17;;
8958;SDS011;4514;49.476;8.484;2023-03-03T17:20:10;21.48;;;14.80;;
8958;SDS011;4514;49.476;8.484;2023-03-03T17:28:19;20.02;;;15.90;;
8958;SDS011;4514;49.476;8.484;2023-03-03T17:41:39;24.07;;;18.00;;
8958;SDS011;4514;49.476;8.484;2023-03-03T17:46:51;22.20;;;16.43;;
8958;SDS011;4514;49.476;8.484;2023-03-03T17:57:48;15.30;;;12.77;;
8958;SDS011;4514;49.476;8.484;2023-03-03T18:00:54;15.02;;;11.50;;
8958;SDS011;4514;49.476;8.484;2023-03-03T18:06:16;14.97;;;10.60;;
8958;SDS011;4514;49.476;8.484;2023-03-03T18:08:55;14.30;;;10.87;;
8958;SDS011;4514;49.476;8.484;2023-03-03T18:11:39;14.30;;;11.13;;
8958;SDS011;4514;49.476;8.484;2023-03-03T18:19:43;13.63;;;10.83;;
8958;SDS011;4514;49.476;8.484;2023-03-03T18:40:47;13.80;;;10.77;;
8958;SDS011;4514;49.476;8.484;2023-03-03T18:54:21;13.75;;;10.20;;
8958;SDS011;4514;49.476;8.484;2023-03-03T19:04:43;14.33;;;11.40;;
8958;SDS011;4514;49.476;8.484;2023-03-03T19:12:44;12.80;;;9.80;;
8958;SDS011;4514;49.476;8.484;2023-03-03T19:18:04;14.00;;;11.77;;
8958;SDS011;4514;49.476;8.484;2023-03-03T19:20:43;15.43;;;10.53;;
8958;SDS011;4514;49.476;8.484;2023-03-03T19:26:18;14.80;;;10.47;;
8958;SDS011;4514;49.476;8.484;2023-03-03T19:34:19;14.17;;;10.83;;
8958;SDS011;4514;49.476;8.484;2023-03-03T19:50:44;12.93;;;11.03;;
8958;SDS011;4514;49.476;8.484;2023-03-03T20:09:16;14.97;;;11.80;;
8958;SDS011;4514;49.476;8.484;2023-03-03T20:11:55;16.27;;;12.50;;
8958;SDS011;4514;49.476;8.484;2023-03-03T20:14:46;14.43;;;12.03;;
8958;SDS011;4514;49.476;8.484;2023-03-03T20:30:40;13.37;;;11.37;;
8958;SDS011;4514;49.476;8.484;2023-03-03T20:38:44;10.70;;;8.83;;
8958;SDS011;4514;49.476;8.484;2023-03-03T20:41:24;11.50;;;9.03;;
8958;SDS011;4514;49.476;8.484;2023-03-03T20:55:26;11.67;;;10.17;;
8958;SDS011;4514;49.476;8.484;2023-03-03T20:58:13;11.67;;;9.27;;
8958;SDS011;4514;49.476;8.484;2023-03-03T21:01:03;13.03;;;9.53;;
8958;SDS011;4514;49.476;8.484;2023-03-03T21:03:31;11.97;;;10.17;;
8958;SDS011;4514;49.476;8.484;2023-03-03T21:08:38;13.60;;;11.10;;
8958;SDS011;4514;49.476;8.484;2023-03-03T21:11:20;14.37;;;11.37;;
8958;SDS011;4514;49.476;8.484;2023-03-03T21:13:47;15.13;;;11.60;;
8958;SDS011;4514;49.476;8.484;2023-03-03T21:18:59;13.90;;;11.27;;
8958;SDS011;4514;49.476;8.484;2023-03-03T21:21:32;15.53;;;12.23;;
8958;SDS011;4514;49.476;8.484;2023-03-03T21:23:59;17.33;;;12.90;;
8958;SDS011;4514;49.476;8.484;2023-03-03T21:29:32;17.90;;;13.47;;
8958;SDS011;4514;49.476;8.484;2023-03-03T21:32:05;15.73;;;12.80;;
8958;SDS011;4514;49.476;8.484;2023-03-03T21:37:01;18.60;;;14.00;;
8958;SDS011;4514;49.476;8.484;2023-03-03T21:39:35;16.33;;;14.23;;
8958;SDS011;4514;49.476;8.484;2023-03-03T21:42:14;18.63;;;15.70;;
8958;SDS011;4514;49.476;8.484;2023-03-03T21:44:43;19.40;;;16.03;;
8958;SDS011;4514;49.476;8.484;2023-03-03T21:47:20;21.43;;;17.27;;
8958;SDS011;4514;49.476;8.484;2023-03-03T21:49:51;21.63;;;18.33;;
8958;SDS011;4514;49.476;8.484;2023-03-03T21:52:17;22.90;;;19.00;;
8958;SDS011;4514;49.476;8.484;2023-03-03T21:54:49;21.87;;;18.80;;
8958;SDS011;4514;49.476;8.484;2023-03-03T21:57:16;24.23;;;19.40;;
8958;SDS011;4514;49.476;8.484;2023-03-03T21:59:43;23.70;;;19.73;;
8958;SDS011;4514;49.476;8.484;2023-03-03T22:02:11;24.93;;;21.30;;
8958;SDS011;4514;49.476;8.484;2023-03-03T22:04:37;26.00;;;21.93;;
8958;SDS011;4514;49.476;8.484;2023-03-03T22:07:03;27.17;;;22.67;;
8958;SDS011;4514;49.476;8.484;2023-03-03T22:09:29;29.93;;;22.97;;
8958;SDS011;4514;49.476;8.484;2023-03-03T22:11:59;29.57;;;23.73;;
8958;SDS011;4514;49.476;8.484;2023-03-03T22:14:24;28.77;;;24.70;;
8958;SDS011;4514;49.476;8.484;2023-03-03T22:16:52;29.17;;;25.33;;
8958;SDS011;4514;49.476;8.484;2023-03-03T22:19:17;31.53;;;25.37;;